sensor_id;sensor_type;location;lat;lon;timestamp;pressure;altitude;pressure_sealevel;temperature;humidity
12897;BME280;6516;35.028;32.372;2022-12-07T00:01:24;100323.63;;;13.85;100.00
12897;BME280;6516;35.028;32.372;2022-12-07T00:03:54;100320.09;;;13.85;100.00
12897;BME280;6516;35.028;32.372;2022-12-07T00:06:26;100320.91;;;13.87;100.00
12897;BME280;6516;35.028;32.372;2022-12-07T00:08:54;100320.81;;;13.90;100.00
12897;BME280;6516;35.028;32.372;2022-12-07T00:11:23;100319.09;;;13.89;100.00
12897;BME280;6516;35.028;32.372;2022-12-07T00:13:54;100320.81;;;13.90;100.00
12897;BME280;6516;35.028;32.372;2022-12-07T00:16:25;100322.53;;;13.91;100.00
12897;BME280;6516;35.028;32.372;2022-12-07T00:18:55;100324.34;;;13.90;100.00
12897;BME280;6516;35.028;32.372;2022-12-07T00:21:25;100324.28;;;13.92;100.00
12897;BME280;6516;35.028;32.372;2022-12-07T00:23:55;100319.09;;;13.89;100.00
12897;BME280;6516;35.028;32.372;2022-12-07T00:26:25;100324.28;;;13.92;100.00
12897;BME280;6516;35.028;32.372;2022-12-07T00:28:57;100326.03;;;13.93;99.49
12897;BME280;6516;35.028;32.372;2022-12-07T00:31:28;100324.50;;;13.84;99.79
12897;BME280;6516;35.028;32.372;2022-12-07T00:33:59;100332.53;;;13.81;100.00
12897;BME280;6516;35.028;32.372;2022-12-07T00:36:27;100338.69;;;13.82;100.00
12897;BME280;6516;35.028;32.372;2022-12-07T00:38:56;100330.75;;;13.82;100.00
12897;BME280;6516;35.028;32.372;2022-12-07T00:41:26;100330.84;;;13.79;100.00
12897;BME280;6516;35.028;32.372;2022-12-07T00:43:56;100341.38;;;13.80;99.96
12897;BME280;6516;35.028;32.372;2022-12-07T00:46:25;100337.00;;;13.79;99.83
12897;BME280;6516;35.028;32.372;2022-12-07T00:48:54;100333.50;;;13.79;99.79
12897;BME280;6516;35.028;32.372;2022-12-07T00:51:23;100338.88;;;13.76;99.48
12897;BME280;6516;35.028;32.372;2022-12-07T00:53:52;100330.25;;;13.68;99.58
12897;BME280;6516;35.028;32.372;2022-12-07T00:56:21;100325.16;;;13.62;99.90
12897;BME280;6516;35.028;32.372;2022-12-07T00:58:52;100320.81;;;13.59;100.00
12897;BME280;6516;35.028;32.372;2022-12-07T01:01:24;100320.03;;;13.56;100.00
12897;BME280;6516;35.028;32.372;2022-12-07T01:03:53;100323.75;;;13.49;100.00
12897;BME280;6516;35.028;32.372;2022-12-07T01:06:22;100330.91;;;13.45;100.00
12897;BME280;6516;35.028;32.372;2022-12-07T01:08:52;100327.53;;;13.39;100.00
12897;BME280;6516;35.028;32.372;2022-12-07T01:11:22;100319.66;;;13.37;100.00
12897;BME280;6516;35.028;32.372;2022-12-07T01:13:51;100315.31;;;13.35;100.00
12897;BME280;6516;35.028;32.372;2022-12-07T01:16:22;100317.22;;;13.30;100.00
12897;BME280;6516;35.028;32.372;2022-12-07T01:18:53;100322.50;;;13.30;100.00
12897;BME280;6516;35.028;32.372;2022-12-07T01:21:23;100313.69;;;13.29;100.00
12897;BME280;6516;35.028;32.372;2022-12-07T01:23:52;100314.56;;;13.30;100.00
12897;BME280;6516;35.028;32.372;2022-12-07T01:26:22;100323.31;;;13.32;100.00
12897;BME280;6516;35.028;32.372;2022-12-07T01:28:52;100320.66;;;13.32;100.00
12897;BME280;6516;35.028;32.372;2022-12-07T01:31:23;100321.47;;;13.35;100.00
12897;BME280;6516;35.028;32.372;2022-12-07T01:33:54;100321.47;;;13.35;99.96
12897;BME280;6516;35.028;32.372;2022-12-07T01:36:24;100317.09;;;13.33;99.76
12897;BME280;6516;35.028;32.372;2022-12-07T01:38:57;100317.97;;;13.33;99.48
12897;BME280;6516;35.028;32.372;2022-12-07T01:41:29;100317.03;;;13.36;99.37
12897;BME280;6516;35.028;32.372;2022-12-07T01:44:19;100317.06;;;13.34;99.07
12897;BME280;6516;35.028;32.372;2022-12-07T01:46:50;100317.97;;;13.33;99.07
12897;BME280;6516;35.028;32.372;2022-12-07T01:49:23;100326.88;;;13.31;99.21
12897;BME280;6516;35.028;32.372;2022-12-07T01:51:58;100318.19;;;13.26;99.28
12897;BME280;6516;35.028;32.372;2022-12-07T01:54:35;100321.94;;;13.17;99.18
12897;BME280;6516;35.028;32.372;2022-12-07T01:57:04;100327.31;;;13.14;99.82
12897;BME280;6516;35.028;32.372;2022-12-07T01:59:34;100328.19;;;13.15;100.00
12897;BME280;6516;35.028;32.372;2022-12-07T02:02:07;100324.66;;;13.14;100.00
12897;BME280;6516;35.028;32.372;2022-12-07T02:04:39;100325.56;;;13.13;100.00
12897;BME280;6516;35.028;32.372;2022-12-07T02:07:07;100315.00;;;13.13;100.00
12897;BME280;6516;35.028;32.372;2022-12-07T02:09:35;100322.84;;;13.16;100.00
12897;BME280;6516;35.028;32.372;2022-12-07T02:12:03;100322.09;;;13.11;100.00
12897;BME280;6516;35.028;32.372;2022-12-07T02:14:32;100319.53;;;13.08;100.00
12897;BME280;6516;35.028;32.372;2022-12-07T02:17:09;100320.41;;;13.07;100.00
12897;BME280;6516;35.028;32.372;2022-12-07T02:20:17;100319.81;;;12.98;100.00
12897;BME280;6516;35.028;32.372;2022-12-07T02:23:22;100318.06;;;12.97;100.00
12897;BME280;6516;35.028;32.372;2022-12-07T02:26:42;100319.00;;;12.93;100.00
12897;BME280;6516;35.028;32.372;2022-12-07T02:29:25;100316.28;;;12.97;100.00
12897;BME280;6516;35.028;32.372;2022-12-07T02:31:59;100317.06;;;13.01;100.00
12897;BME280;6516;35.028;32.372;2022-12-07T02:34:38;100318.88;;;12.99;100.00
12897;BME280;6516;35.028;32.372;2022-12-07T02:37:19;100318.91;;;12.96;100.00
12897;BME280;6516;35.028;32.372;2022-12-07T02:39:55;100316.38;;;12.93;99.80
12897;BME280;6516;35.028;32.372;2022-12-07T02:42:30;100312.81;;;12.94;99.59
12897;BME280;6516;35.028;32.372;2022-12-07T02:45:03;100331.09;;;13.04;99.26
12897;BME280;6516;35.028;32.372;2022-12-07T02:47:33;100325.69;;;13.09;98.72
12897;BME280;6516;35.028;32.372;2022-12-07T02:50:03;100323.03;;;13.09;98.49
12897;BME280;6516;35.028;32.372;2022-12-07T02:52:32;100326.53;;;13.11;98.47
12897;BME280;6516;35.028;32.372;2022-12-07T02:54:59;100322.09;;;13.11;98.22
12897;BME280;6516;35.028;32.372;2022-12-07T02:57:38;100326.44;;;13.12;98.31
12897;BME280;6516;35.028;32.372;2022-12-07T03:00:16;100324.53;;;13.19;98.34
12897;BME280;6516;35.028;32.372;2022-12-07T03:02:58;100326.13;;;13.26;98.55
12897;BME280;6516;35.028;32.372;2022-12-07T03:05:55;100320.75;;;13.29;98.59
12897;BME280;6516;35.028;32.372;2022-12-07T03:08:37;100326.84;;;13.32;98.92
12897;BME280;6516;35.028;32.372;2022-12-07T03:11:18;100323.19;;;13.36;98.99
12897;BME280;6516;35.028;32.372;2022-12-07T03:13:55;100324.75;;;13.43;99.12
12897;BME280;6516;35.028;32.372;2022-12-07T03:16:33;100316.72;;;13.48;98.94
12897;BME280;6516;35.028;32.372;2022-12-07T03:19:07;100321.81;;;13.55;98.82
12897;BME280;6516;35.028;32.372;2022-12-07T03:21:38;100323.41;;;13.61;98.63
12897;BME280;6516;35.028;32.372;2022-12-07T03:24:11;100326.00;;;13.62;98.25
12897;BME280;6516;35.028;32.372;2022-12-07T03:26:44;100319.84;;;13.62;98.00
12897;BME280;6516;35.028;32.372;2022-12-07T03:29:19;100317.94;;;13.67;97.94
12897;BME280;6516;35.028;32.372;2022-12-07T03:31:54;100319.69;;;13.68;97.68
12897;BME280;6516;35.028;32.372;2022-12-07T03:34:29;100317.94;;;13.67;97.61
12897;BME280;6516;35.028;32.372;2022-12-07T03:37:02;100321.50;;;13.66;97.49
12897;BME280;6516;35.028;32.372;2022-12-07T03:39:36;100318.91;;;13.64;97.54
12897;BME280;6516;35.028;32.372;2022-12-07T03:42:07;100321.66;;;13.60;97.28
12897;BME280;6516;35.028;32.372;2022-12-07T03:44:38;100318.47;;;13.47;97.32
12897;BME280;6516;35.028;32.372;2022-12-07T03:47:13;100327.44;;;13.42;97.89
12897;BME280;6516;35.028;32.372;2022-12-07T03:49:48;100328.47;;;13.38;98.06
12897;BME280;6516;35.028;32.372;2022-12-07T03:52:23;100332.13;;;13.32;98.25
12897;BME280;6516;35.028;32.372;2022-12-07T03:54:57;100330.69;;;13.19;98.53
12897;BME280;6516;35.028;32.372;2022-12-07T03:57:28;100331.94;;;13.05;99.15
12897;BME280;6516;35.028;32.372;2022-12-07T03:59:58;100331.28;;;12.97;99.66
12897;BME280;6516;35.028;32.372;2022-12-07T04:02:28;100334.03;;;12.91;100.00
12897;BME280;6516;35.028;32.372;2022-12-07T04:04:56;100335.88;;;12.87;99.84
12897;BME280;6516;35.028;32.372;2022-12-07T04:07:24;100333.31;;;12.84;99.63
12897;BME280;6516;35.028;32.372;2022-12-07T04:09:52;100335.97;;;12.83;100.00
12897;BME280;6516;35.028;32.372;2022-12-07T04:12:20;100342.97;;;12.85;100.00
12897;BME280;6516;35.028;32.372;2022-12-07T04:14:48;100345.72;;;12.81;99.79
12897;BME280;6516;35.028;32.372;2022-12-07T04:17:16;100344.44;;;12.60;99.87
12897;BME280;6516;35.028;32.372;2022-12-07T04:19:45;100344.69;;;12.50;100.00
12897;BME280;6516;35.028;32.372;2022-12-07T04:22:13;100342.09;;;12.47;100.00
12897;BME280;6516;35.028;32.372;2022-12-07T04:24:40;100342.78;;;12.56;100.00
12897;BME280;6516;35.028;32.372;2022-12-07T04:27:08;100349.56;;;12.66;100.00
12897;BME280;6516;35.028;32.372;2022-12-07T04:29:36;100346.00;;;12.69;100.00
12897;BME280;6516;35.028;32.372;2022-12-07T04:32:04;100339.44;;;12.48;99.62
12897;BME280;6516;35.028;32.372;2022-12-07T04:34:32;100340.66;;;12.34;100.00
12897;BME280;6516;35.028;32.372;2022-12-07T04:37:02;100347.00;;;12.25;100.00
12897;BME280;6516;35.028;32.372;2022-12-07T04:39:31;100343.53;;;12.23;100.00
12897;BME280;6516;35.028;32.372;2022-12-07T04:42:00;100342.78;;;12.17;100.00
12897;BME280;6516;35.028;32.372;2022-12-07T04:44:29;100342.13;;;12.06;100.00
12897;BME280;6516;35.028;32.372;2022-12-07T04:46:58;100344.75;;;12.06;100.00
12897;BME280;6516;35.028;32.372;2022-12-07T04:49:25;100346.41;;;12.11;100.00
12897;BME280;6516;35.028;32.372;2022-12-07T04:51:54;100340.81;;;12.26;100.00
12897;BME280;6516;35.028;32.372;2022-12-07T04:54:24;100335.31;;;12.35;100.00
12897;BME280;6516;35.028;32.372;2022-12-07T04:56:51;100335.66;;;12.20;100.00
12897;BME280;6516;35.028;32.372;2022-12-07T04:59:19;100335.69;;;12.19;100.00
12897;BME280;6516;35.028;32.372;2022-12-07T05:01:47;100341.13;;;12.13;100.00
12897;BME280;6516;35.028;32.372;2022-12-07T05:04:15;100342.88;;;12.12;100.00
12897;BME280;6516;35.028;32.372;2022-12-07T05:06:43;100342.97;;;12.09;100.00
12897;BME280;6516;35.028;32.372;2022-12-07T05:09:11;100341.13;;;12.11;100.00
12897;BME280;6516;35.028;32.372;2022-12-07T05:11:40;100344.69;;;12.10;100.00
12897;BME280;6516;35.028;32.372;2022-12-07T05:14:12;100338.50;;;12.11;100.00
12897;BME280;6516;35.028;32.372;2022-12-07T05:16:43;100347.19;;;12.16;100.00
12897;BME280;6516;35.028;32.372;2022-12-07T05:19:11;100342.59;;;12.26;100.00
12897;BME280;6516;35.028;32.372;2022-12-07T05:21:39;100352.09;;;12.33;100.00
12897;BME280;6516;35.028;32.372;2022-12-07T05:24:10;100342.28;;;12.39;100.00
12897;BME280;6516;35.028;32.372;2022-12-07T05:26:41;100350.66;;;12.58;100.00
12897;BME280;6516;35.028;32.372;2022-12-07T05:29:11;100346.75;;;12.74;100.00
12897;BME280;6516;35.028;32.372;2022-12-07T05:31:40;100354.44;;;12.84;100.00
12897;BME280;6516;35.028;32.372;2022-12-07T05:34:08;100346.25;;;12.95;100.00
12897;BME280;6516;35.028;32.372;2022-12-07T05:36:36;100355.75;;;13.03;100.00
12897;BME280;6516;35.028;32.372;2022-12-07T05:39:04;100357.34;;;13.10;99.85
12897;BME280;6516;35.028;32.372;2022-12-07T05:41:32;100360.59;;;13.21;99.53
12897;BME280;6516;35.028;32.372;2022-12-07T05:44:19;100369.91;;;13.36;98.95
12897;BME280;6516;35.028;32.372;2022-12-07T05:46:47;100373.97;;;13.50;98.50
12897;BME280;6516;35.028;32.372;2022-12-07T05:49:14;100374.47;;;13.64;98.38
12897;BME280;6516;35.028;32.372;2022-12-07T05:51:43;100371.28;;;13.84;97.92
12897;BME280;6516;35.028;32.372;2022-12-07T05:54:11;100377.81;;;14.03;97.52
12897;BME280;6516;35.028;32.372;2022-12-07T05:56:39;100384.34;;;14.22;96.04
12897;BME280;6516;35.028;32.372;2022-12-07T05:59:08;100386.38;;;14.43;96.81
12897;BME280;6516;35.028;32.372;2022-12-07T06:01:56;100384.84;;;14.63;96.96
12897;BME280;6516;35.028;32.372;2022-12-07T06:04:26;100383.13;;;14.90;95.34
12897;BME280;6516;35.028;32.372;2022-12-07T06:06:55;100378.97;;;15.09;93.30
12897;BME280;6516;35.028;32.372;2022-12-07T06:09:24;100387.91;;;15.34;92.24
12897;BME280;6516;35.028;32.372;2022-12-07T06:11:53;100388.09;;;15.54;90.40
12897;BME280;6516;35.028;32.372;2022-12-07T06:14:39;100382.69;;;15.81;89.52
12897;BME280;6516;35.028;32.372;2022-12-07T06:17:08;100381.53;;;16.13;90.81
12897;BME280;6516;35.028;32.372;2022-12-07T06:19:37;100381.53;;;16.36;88.96
12897;BME280;6516;35.028;32.372;2022-12-07T06:22:06;100381.53;;;16.60;88.46
12897;BME280;6516;35.028;32.372;2022-12-07T06:24:35;100386.81;;;16.83;84.42
12897;BME280;6516;35.028;32.372;2022-12-07T06:27:03;100389.78;;;16.97;83.76
12897;BME280;6516;35.028;32.372;2022-12-07T06:29:32;100384.66;;;16.93;81.05
12897;BME280;6516;35.028;32.372;2022-12-07T06:32:00;100387.13;;;16.97;81.90
12897;BME280;6516;35.028;32.372;2022-12-07T06:34:29;100384.25;;;17.03;82.13
12897;BME280;6516;35.028;32.372;2022-12-07T06:36:57;100387.16;;;17.19;82.56
12897;BME280;6516;35.028;32.372;2022-12-07T06:39:26;100383.63;;;17.40;80.68
12897;BME280;6516;35.028;32.372;2022-12-07T06:41:56;100394.03;;;17.66;79.68
12897;BME280;6516;35.028;32.372;2022-12-07T06:44:24;100392.97;;;17.90;76.43
12897;BME280;6516;35.028;32.372;2022-12-07T06:46:52;100392.91;;;18.11;73.60
12897;BME280;6516;35.028;32.372;2022-12-07T06:49:20;100394.28;;;18.40;71.20
12897;BME280;6516;35.028;32.372;2022-12-07T06:51:49;100390.13;;;18.53;69.54
12897;BME280;6516;35.028;32.372;2022-12-07T06:54:17;100390.56;;;18.62;69.41
12897;BME280;6516;35.028;32.372;2022-12-07T06:56:45;100390.56;;;18.81;69.24
12897;BME280;6516;35.028;32.372;2022-12-07T06:59:13;100395.19;;;18.96;67.86
12897;BME280;6516;35.028;32.372;2022-12-07T07:01:41;100384.91;;;19.05;67.37
12897;BME280;6516;35.028;32.372;2022-12-07T07:04:08;100394.13;;;19.17;67.58
12897;BME280;6516;35.028;32.372;2022-12-07T07:06:36;100397.88;;;19.13;66.71
12897;BME280;6516;35.028;32.372;2022-12-07T07:09:05;100389.94;;;19.30;67.61
12897;BME280;6516;35.028;32.372;2022-12-07T07:11:35;100397.22;;;19.45;66.38
12897;BME280;6516;35.028;32.372;2022-12-07T07:14:02;100394.16;;;19.69;65.48
12897;BME280;6516;35.028;32.372;2022-12-07T07:16:30;100386.53;;;19.79;63.14
12897;BME280;6516;35.028;32.372;2022-12-07T07:18:59;100391.72;;;19.99;63.28
12897;BME280;6516;35.028;32.372;2022-12-07T07:21:26;100387.94;;;20.03;61.30
12897;BME280;6516;35.028;32.372;2022-12-07T07:23:54;100392.59;;;20.00;61.74
12897;BME280;6516;35.028;32.372;2022-12-07T07:26:24;100398.50;;;19.72;62.42
12897;BME280;6516;35.028;32.372;2022-12-07T07:28:51;100399.66;;;19.49;63.02
12897;BME280;6516;35.028;32.372;2022-12-07T07:31:19;100403.59;;;19.59;62.64
12897;BME280;6516;35.028;32.372;2022-12-07T07:33:47;100397.28;;;19.60;62.99
12897;BME280;6516;35.028;32.372;2022-12-07T07:36:14;100397.28;;;19.60;62.60
12897;BME280;6516;35.028;32.372;2022-12-07T07:38:42;100399.66;;;19.49;62.95
12897;BME280;6516;35.028;32.372;2022-12-07T07:41:10;100400.97;;;19.58;63.37
12897;BME280;6516;35.028;32.372;2022-12-07T07:43:39;100404.84;;;19.52;61.82
12897;BME280;6516;35.028;32.372;2022-12-07T07:46:07;100399.22;;;19.76;62.52
12897;BME280;6516;35.028;32.372;2022-12-07T07:48:36;100403.59;;;19.94;62.74
12897;BME280;6516;35.028;32.372;2022-12-07T07:51:05;100398.38;;;20.09;60.85
12897;BME280;6516;35.028;32.372;2022-12-07T07:53:33;100393.56;;;20.16;61.46
12897;BME280;6516;35.028;32.372;2022-12-07T07:56:01;100389.94;;;20.17;61.03
12897;BME280;6516;35.028;32.372;2022-12-07T07:58:29;100391.91;;;20.13;60.32
12897;BME280;6516;35.028;32.372;2022-12-07T08:01:03;100393.63;;;20.14;60.30
12897;BME280;6516;35.028;32.372;2022-12-07T08:03:31;100389.91;;;20.00;59.46
12897;BME280;6516;35.028;32.372;2022-12-07T08:05:59;100385.13;;;20.06;60.58
12897;BME280;6516;35.028;32.372;2022-12-07T08:08:27;100387.31;;;19.98;60.89
12897;BME280;6516;35.028;32.372;2022-12-07T08:10:55;100381.50;;;19.90;60.85
12897;BME280;6516;35.028;32.372;2022-12-07T08:13:26;100381.97;;;19.81;60.51
12897;BME280;6516;35.028;32.372;2022-12-07T08:15:54;100391.75;;;19.65;59.86
12897;BME280;6516;35.028;32.372;2022-12-07T08:18:23;100389.22;;;19.79;61.00
12897;BME280;6516;35.028;32.372;2022-12-07T08:20:51;100385.44;;;19.66;61.24
12897;BME280;6516;35.028;32.372;2022-12-07T08:23:19;100390.09;;;19.63;61.37
12897;BME280;6516;35.028;32.372;2022-12-07T08:25:47;100393.22;;;19.53;60.99
12897;BME280;6516;35.028;32.372;2022-12-07T08:28:15;100385.59;;;19.46;62.69
12897;BME280;6516;35.028;32.372;2022-12-07T08:30:43;100389.91;;;19.48;62.34
12897;BME280;6516;35.028;32.372;2022-12-07T08:33:11;100386.63;;;19.43;63.28
12897;BME280;6516;35.028;32.372;2022-12-07T08:35:41;100384.16;;;19.39;62.66
12897;BME280;6516;35.028;32.372;2022-12-07T08:38:09;100375.84;;;19.62;62.50
12897;BME280;6516;35.028;32.372;2022-12-07T08:40:36;100376.63;;;19.81;61.83
12897;BME280;6516;35.028;32.372;2022-12-07T08:43:04;100371.34;;;19.97;61.65
12897;BME280;6516;35.028;32.372;2022-12-07T08:45:32;100361.81;;;20.25;61.37
12897;BME280;6516;35.028;32.372;2022-12-07T08:48:05;100360.75;;;20.45;58.41
12897;BME280;6516;35.028;32.372;2022-12-07T08:50:36;100360.69;;;20.62;58.29
12897;BME280;6516;35.028;32.372;2022-12-07T08:53:06;100356.88;;;20.50;58.21
12897;BME280;6516;35.028;32.372;2022-12-07T08:55:34;100358.75;;;20.48;58.03
12897;BME280;6516;35.028;32.372;2022-12-07T08:58:02;100346.84;;;20.38;56.43
12897;BME280;6516;35.028;32.372;2022-12-07T09:00:30;100351.19;;;20.56;57.53
12897;BME280;6516;35.028;32.372;2022-12-07T09:02:58;100351.19;;;20.56;56.19
12897;BME280;6516;35.028;32.372;2022-12-07T09:05:26;100352.31;;;20.68;55.39
12897;BME280;6516;35.028;32.372;2022-12-07T09:07:57;100348.53;;;20.72;56.04
12897;BME280;6516;35.028;32.372;2022-12-07T09:10:29;100345.25;;;20.82;56.79
12897;BME280;6516;35.028;32.372;2022-12-07T09:12:57;100350.13;;;20.91;56.79
12897;BME280;6516;35.028;32.372;2022-12-07T09:15:26;100348.78;;;20.83;56.09
12897;BME280;6516;35.028;32.372;2022-12-07T09:17:54;100338.00;;;20.84;57.03
12897;BME280;6516;35.028;32.372;2022-12-07T09:20:22;100339.31;;;20.77;55.65
12897;BME280;6516;35.028;32.372;2022-12-07T09:22:49;100337.81;;;20.72;56.45
12897;BME280;6516;35.028;32.372;2022-12-07T09:25:17;100334.88;;;20.76;55.86
12897;BME280;6516;35.028;32.372;2022-12-07T09:27:46;100333.97;;;20.93;55.83
12897;BME280;6516;35.028;32.372;2022-12-07T09:30:14;100325.81;;;21.10;55.76
12897;BME280;6516;35.028;32.372;2022-12-07T09:32:42;100320.38;;;21.11;54.91
12897;BME280;6516;35.028;32.372;2022-12-07T09:35:10;100322.38;;;21.23;54.66
12897;BME280;6516;35.028;32.372;2022-12-07T09:37:38;100322.41;;;21.37;53.28
12897;BME280;6516;35.028;32.372;2022-12-07T09:40:07;100313.00;;;21.60;52.93
12897;BME280;6516;35.028;32.372;2022-12-07T09:42:37;100312.72;;;21.64;53.46
12897;BME280;6516;35.028;32.372;2022-12-07T09:45:14;100313.38;;;21.83;53.73
12897;BME280;6516;35.028;32.372;2022-12-07T09:47:45;100311.28;;;22.02;53.32
12897;BME280;6516;35.028;32.372;2022-12-07T09:50:14;100311.50;;;22.13;52.90
12897;BME280;6516;35.028;32.372;2022-12-07T09:52:44;100303.69;;;22.37;52.46
12897;BME280;6516;35.028;32.372;2022-12-07T09:55:15;100301.50;;;22.57;51.63
12897;BME280;6516;35.028;32.372;2022-12-07T09:57:44;100302.97;;;22.49;51.18
12897;BME280;6516;35.028;32.372;2022-12-07T10:00:16;100301.78;;;21.83;52.38
12897;BME280;6516;35.028;32.372;2022-12-07T10:02:47;100301.59;;;21.86;53.14
12897;BME280;6516;35.028;32.372;2022-12-07T10:05:29;100298.56;;;22.06;52.60
12897;BME280;6516;35.028;32.372;2022-12-07T10:07:59;100295.25;;;21.87;52.40
12897;BME280;6516;35.028;32.372;2022-12-07T10:10:30;100304.09;;;21.59;52.66
12897;BME280;6516;35.028;32.372;2022-12-07T10:13:00;100295.03;;;21.62;53.17
12897;BME280;6516;35.028;32.372;2022-12-07T10:15:50;100291.75;;;21.86;53.01
12897;BME280;6516;35.028;32.372;2022-12-07T10:18:28;100292.31;;;22.19;51.78
12897;BME280;6516;35.028;32.372;2022-12-07T10:21:08;100295.66;;;22.23;50.71
12897;BME280;6516;35.028;32.372;2022-12-07T10:23:39;100288.06;;;22.43;51.16
12897;BME280;6516;35.028;32.372;2022-12-07T10:26:33;100295.56;;;22.38;50.99
12897;BME280;6516;35.028;32.372;2022-12-07T10:29:16;100304.19;;;22.29;51.46
12897;BME280;6516;35.028;32.372;2022-12-07T10:31:55;100297.59;;;22.21;50.95
12897;BME280;6516;35.028;32.372;2022-12-07T10:34:25;100286.19;;;22.17;50.88
12897;BME280;6516;35.028;32.372;2022-12-07T10:37:14;100284.66;;;22.27;50.24
12897;BME280;6516;35.028;32.372;2022-12-07T10:39:44;100286.44;;;22.55;49.81
12897;BME280;6516;35.028;32.372;2022-12-07T10:42:17;100275.94;;;22.78;49.16
12897;BME280;6516;35.028;32.372;2022-12-07T10:44:47;100279.91;;;22.73;49.03
12897;BME280;6516;35.028;32.372;2022-12-07T10:47:25;100281.28;;;22.92;48.13
12897;BME280;6516;35.028;32.372;2022-12-07T10:50:29;100280.34;;;22.79;47.72
12897;BME280;6516;35.028;32.372;2022-12-07T10:53:13;100276.69;;;22.80;48.40
12897;BME280;6516;35.028;32.372;2022-12-07T10:56:00;100272.75;;;22.59;49.88
12897;BME280;6516;35.028;32.372;2022-12-07T10:58:56;100274.94;;;22.67;50.52
12897;BME280;6516;35.028;32.372;2022-12-07T11:01:34;100270.00;;;22.47;49.71
12897;BME280;6516;35.028;32.372;2022-12-07T11:04:24;100264.50;;;22.48;50.18
12897;BME280;6516;35.028;32.372;2022-12-07T11:07:02;100260.91;;;22.49;50.35
12897;BME280;6516;35.028;32.372;2022-12-07T11:09:48;100262.53;;;22.24;50.56
12897;BME280;6516;35.028;32.372;2022-12-07T11:12:27;100262.16;;;22.02;50.96
12897;BME280;6516;35.028;32.372;2022-12-07T11:15:07;100257.63;;;22.02;51.15
12897;BME280;6516;35.028;32.372;2022-12-07T11:17:47;100255.09;;;21.57;52.27
12897;BME280;6516;35.028;32.372;2022-12-07T11:20:29;100250.22;;;21.20;52.72
12897;BME280;6516;35.028;32.372;2022-12-07T11:23:13;100252.94;;;21.05;53.70
12897;BME280;6516;35.028;32.372;2022-12-07T11:25:52;100245.81;;;20.74;55.54
12897;BME280;6516;35.028;32.372;2022-12-07T11:28:40;100250.19;;;20.75;55.80
12897;BME280;6516;35.028;32.372;2022-12-07T11:31:22;100252.19;;;20.72;55.90
12897;BME280;6516;35.028;32.372;2022-12-07T11:34:00;100259.63;;;20.51;54.84
12897;BME280;6516;35.028;32.372;2022-12-07T11:36:37;100255.13;;;20.67;55.25
12897;BME280;6516;35.028;32.372;2022-12-07T11:39:16;100253.25;;;20.69;54.99
12897;BME280;6516;35.028;32.372;2022-12-07T11:41:54;100260.91;;;20.60;54.06
12897;BME280;6516;35.028;32.372;2022-12-07T11:44:39;100257.72;;;20.53;55.43
12897;BME280;6516;35.028;32.372;2022-12-07T11:47:18;100251.59;;;20.67;55.15
12897;BME280;6516;35.028;32.372;2022-12-07T11:49:54;100263.59;;;20.91;55.32
12897;BME280;6516;35.028;32.372;2022-12-07T11:52:32;100248.22;;;20.94;54.04
12897;BME280;6516;35.028;32.372;2022-12-07T11:55:26;100254.94;;;20.86;53.08
12897;BME280;6516;35.028;32.372;2022-12-07T11:58:03;100251.50;;;20.99;52.35
12897;BME280;6516;35.028;32.372;2022-12-07T12:00:32;100250.00;;;21.09;51.89
12897;BME280;6516;35.028;32.372;2022-12-07T12:03:03;100251.44;;;21.15;52.86
12897;BME280;6516;35.028;32.372;2022-12-07T12:05:39;100257.63;;;20.86;53.56
12897;BME280;6516;35.028;32.372;2022-12-07T12:08:14;100257.28;;;20.76;53.66
12897;BME280;6516;35.028;32.372;2022-12-07T12:10:55;100255.75;;;20.57;54.84
12897;BME280;6516;35.028;32.372;2022-12-07T12:13:41;100261.63;;;20.48;54.47
12897;BME280;6516;35.028;32.372;2022-12-07T12:16:54;100257.28;;;20.14;55.16
12897;BME280;6516;35.028;32.372;2022-12-07T12:19:35;100266.94;;;20.17;55.74
12897;BME280;6516;35.028;32.372;2022-12-07T12:22:12;100265.22;;;20.16;54.31
12897;BME280;6516;35.028;32.372;2022-12-07T12:24:44;100262.94;;;20.08;55.33
12897;BME280;6516;35.028;32.372;2022-12-07T12:27:21;100262.69;;;19.80;56.62
12897;BME280;6516;35.028;32.372;2022-12-07T12:29:53;100263.03;;;19.74;57.51
12897;BME280;6516;35.028;32.372;2022-12-07T12:32:31;100250.00;;;19.51;57.24
12897;BME280;6516;35.028;32.372;2022-12-07T12:35:20;100249.00;;;19.36;58.39
12897;BME280;6516;35.028;32.372;2022-12-07T12:37:55;100253.28;;;19.22;58.98
12897;BME280;6516;35.028;32.372;2022-12-07T12:40:58;100249.91;;;19.01;59.69
12897;BME280;6516;35.028;32.372;2022-12-07T12:43:47;100253.69;;;18.97;60.20
12897;BME280;6516;35.028;32.372;2022-12-07T12:46:49;100251.53;;;19.04;59.93
12897;BME280;6516;35.028;32.372;2022-12-07T12:49:42;100239.75;;;19.26;60.04
12897;BME280;6516;35.028;32.372;2022-12-07T12:55:43;100239.75;;;19.76;58.23
12897;BME280;6516;35.028;32.372;2022-12-07T12:58:40;100237.88;;;19.78;56.84
12897;BME280;6516;35.028;32.372;2022-12-07T13:01:39;100231.50;;;19.81;57.15
12897;BME280;6516;35.028;32.372;2022-12-07T13:04:49;100239.81;;;19.59;57.80
12897;BME280;6516;35.028;32.372;2022-12-07T13:07:49;100235.84;;;19.49;58.57
12897;BME280;6516;35.028;32.372;2022-12-07T13:10:33;100240.78;;;19.24;59.83
12897;BME280;6516;35.028;32.372;2022-12-07T13:13:30;100230.03;;;18.90;60.48
12897;BME280;6516;35.028;32.372;2022-12-07T13:22:51;100245.38;;;18.31;63.06
12897;BME280;6516;35.028;32.372;2022-12-07T13:25:38;100241.50;;;18.19;65.30
12897;BME280;6516;35.028;32.372;2022-12-07T13:28:16;100250.16;;;18.06;65.68
12897;BME280;6516;35.028;32.372;2022-12-07T13:30:59;100248.28;;;17.89;66.06